Time;durP1;ratioP1;P1;durP2;ratioP2;P2;SDS_P1;SDS_P2;PMS_P1;PMS_P2;Temp;Humidity;BMP_temperature;BMP_pressure;BME280_temperature;BME280_humidity;BME280_pressure;Samples;Min_cycle;Max_cycle;Signal;HPM_P1;HPM_P2
2023/11/19 00:01:00;;;;;;;;;;;;;;;;;;4991957;28;19922;-87
2023/11/19 00:03:25;;;;;;;;;;;;;;;;;;4976875;28;20006;-87
2023/11/19 00:05:50;;;;;;;;;;;;;;;;;;4972480;28;19922;-87
2023/11/19 00:08:16;;;;;;;;;;;;;;;;;;4988455;28;19962;-86
2023/11/19 00:10:41;;;;;;;;;;;;;;;;;;4977580;28;20533;-86
2023/11/19 00:13:07;;;;;;;;;;;;;;;;;;4975641;28;19925;-88
2023/11/19 00:15:38;;;;;;;;;;;;;;;;;;5013213;28;20109;-86
2023/11/19 00:18:04;;;;;;;;;;;;;;;;;;5010161;28;19929;-87
2023/11/19 00:20:29;;;;;;;;;;;;;;;;;;4994310;28;19914;-86
2023/11/19 00:22:55;;;;;;;;;;;;;;;;;;4969813;28;19918;-85
2023/11/19 00:25:21;;;;;;;;;;;;;;;;;;4989782;28;20249;-86
2023/11/19 00:27:46;;;;;;;;;;;;;;;;;;4994128;28;19914;-84
2023/11/19 00:30:14;;;;;;;;;;;;;;;;;;4989952;28;19997;-85
2023/11/19 00:32:39;;;;;;;;;;;;;;;;;;4973508;28;20056;-85
2023/11/19 00:35:13;;;;;;;;;;;;;;;;;;4991261;28;20361;-85
2023/11/19 00:37:39;;;;;;;;;;;;;;;;;;4971615;28;19917;-86
2023/11/19 00:40:05;;;;;;;;;;;;;;;;;;4993039;28;19924;-87
2023/11/19 00:42:34;;;;;;;;;;;;;;;;;;4983770;28;20367;-86
2023/11/19 00:45:02;;;;;;;;;;;;;;;;;;4996733;28;19929;-86
2023/11/19 00:47:28;;;;;;;;;;;;;;;;;;4998918;28;20001;-85
2023/11/19 00:49:56;;;;;;;;;;;;;;;;;;4987335;28;19925;-83
2023/11/19 00:52:21;;;;;;;;;;;;;;;;;;4983519;28;19977;-85
2023/11/19 00:54:47;;;;;;;;;;;;;;;;;;4999230;28;19918;-85
2023/11/19 00:57:12;;;;;;;;;;;;;;;;;;5000165;28;20221;-86
2023/11/19 00:59:38;;;;;;;;;;;;;;;;;;4984686;28;20332;-85
2023/11/19 01:02:04;;;;;;;;;;;;;;;;;;4981488;28;19917;-86
2023/11/19 01:04:29;;;;;;;;;;;;;;;;;;4993597;28;19984;-86
2023/11/19 01:06:55;;;;;;;;;;;;;;;;;;4988207;28;19914;-84
2023/11/19 01:09:20;;;;;;;;;;;;;;;;;;4966687;28;19914;-84
2023/11/19 01:11:46;;;;;;;;;;;;;;;;;;5011811;28;19914;-85
2023/11/19 01:14:14;;;;;;;;;;;;;;;;;;4981257;28;20252;-87
2023/11/19 01:16:42;;;;;;;;;;;;;;;;;;5012987;28;19927;-84
2023/11/19 01:19:08;;;;;;;;;;;;;;;;;;4996842;28;19941;-85
2023/11/19 01:21:33;;;;;;;;;;;;;;;;;;4997342;28;20355;-85
2023/11/19 01:24:02;;;;;;;;;;;;;;;;;;4980439;28;20015;-86
2023/11/19 01:26:31;;;;;;;;;;;;;;;;;;4994610;28;19924;-85
2023/11/19 01:28:56;;;;;;;;;;;;;;;;;;4996769;28;19988;-84
2023/11/19 01:31:21;;;;;;;;;;;;;;;;;;4979233;28;20280;-87
2023/11/19 01:33:50;;;;;;;;;;;;;;;;;;4992329;28;19922;-85
2023/11/19 01:36:15;;;;;;;;;;;;;;;;;;4981753;28;20012;-87
2023/11/19 01:38:40;;;;;;;;;;;;;;;;;;4975394;28;19914;-86
2023/11/19 01:41:06;;;;;;;;;;;;;;;;;;4988374;28;20285;-86
2023/11/19 01:43:32;;;;;;;;;;;;;;;;;;4992289;28;20045;-86
2023/11/19 01:46:03;;;;;;;;;;;;;;;;;;4969430;28;19941;-85
2023/11/19 01:48:31;;;;;;;;;;;;;;;;;;5008062;28;19972;-87
2023/11/19 01:50:56;;;;;;;;;;;;;;;;;;4991206;28;19953;-88
2023/11/19 01:53:21;;;;;;;;;;;;;;;;;;4972604;28;19925;-87
2023/11/19 01:59:03;;;;;;;;;;;;;;;;;;4993839;28;20013;-87
2023/11/19 02:01:29;;;;;;;;;;;;;;;;;;4979335;28;19961;-89
2023/11/19 02:03:54;;;;;;;;;;;;;;;;;;5011079;28;19913;-86
2023/11/19 02:06:20;;;;;;;;;;;;;;;;;;4974451;28;19914;-84
2023/11/19 02:08:45;;;;;;;;;;;;;;;;;;4979357;28;19936;-87
2023/11/19 02:11:11;;;;;;;;;;;;;;;;;;4993913;28;20016;-87
2023/11/19 02:13:37;;;;;;;;;;;;;;;;;;4975247;28;19953;-87
2023/11/19 02:16:03;;;;;;;;;;;;;;;;;;4976537;28;19914;-87
2023/11/19 02:18:28;;;;;;;;;;;;;;;;;;4996062;28;20363;-86
2023/11/19 02:20:54;;;;;;;;;;;;;;;;;;4979047;28;19929;-86
2023/11/19 02:23:20;;;;;;;;;;;;;;;;;;4981009;28;19949;-86
2023/11/19 02:29:02;;;;;;;;;;;;;;;;;;4995412;28;19933;-85
2023/11/19 02:31:28;;;;;;;;;;;;;;;;;;4982290;28;20004;-84
2023/11/19 02:33:53;;;;;;;;;;;;;;;;;;4982399;28;20402;-85
2023/11/19 02:36:18;;;;;;;;;;;;;;;;;;5016469;28;19936;-86
2023/11/19 02:38:44;;;;;;;;;;;;;;;;;;4997017;28;19924;-87
2023/11/19 02:41:09;;;;;;;;;;;;;;;;;;4986785;28;19914;-84
2023/11/19 02:43:35;;;;;;;;;;;;;;;;;;4993960;28;19921;-88
2023/11/19 02:46:00;;;;;;;;;;;;;;;;;;4995444;28;19922;-86
2023/11/19 02:48:31;;;;;;;;;;;;;;;;;;4981902;28;19914;-86
2023/11/19 02:50:59;;;;;;;;;;;;;;;;;;4998100;28;20003;-87
2023/11/19 02:53:28;;;;;;;;;;;;;;;;;;4983623;28;19924;-86
2023/11/19 02:56:00;;;;;;;;;;;;;;;;;;4975700;28;19918;-85
2023/11/19 02:58:28;;;;;;;;;;;;;;;;;;4998502;28;19987;-86
2023/11/19 03:01:09;;;;;;;;;;;;;;;;;;4993285;28;19990;-84
2023/11/19 03:03:38;;;;;;;;;;;;;;;;;;4997953;28;19945;-84
2023/11/19 03:06:05;;;;;;;;;;;;;;;;;;4975094;28;20096;-86
2023/11/19 03:08:30;;;;;;;;;;;;;;;;;;4995852;28;19918;-86
2023/11/19 03:10:56;;;;;;;;;;;;;;;;;;4978296;28;19977;-86
2023/11/19 03:13:25;;;;;;;;;;;;;;;;;;5007958;28;19914;-86
2023/11/19 03:15:51;;;;;;;;;;;;;;;;;;4979154;28;19940;-84
2023/11/19 03:18:16;;;;;;;;;;;;;;;;;;4980230;28;19953;-87
2023/11/19 03:20:49;;;;;;;;;;;;;;;;;;5000645;28;21046;-86
2023/11/19 03:23:17;;;;;;;;;;;;;;;;;;4998865;28;19982;-87
2023/11/19 03:25:45;;;;;;;;;;;;;;;;;;4995991;28;20481;-90
2023/11/19 03:28:11;;;;;;;;;;;;;;;;;;4993584;28;19941;-85
2023/11/19 03:30:36;;;;;;;;;;;;;;;;;;4996619;28;19937;-87
2023/11/19 03:33:02;;;;;;;;;;;;;;;;;;4978605;28;19930;-88
2023/11/19 03:35:28;;;;;;;;;;;;;;;;;;4990010;28;20007;-87
2023/11/19 03:37:53;;;;;;;;;;;;;;;;;;4984497;28;19914;-87
2023/11/19 03:40:22;;;;;;;;;;;;;;;;;;4981309;28;19933;-87
2023/11/19 03:42:47;;;;;;;;;;;;;;;;;;4994367;28;19929;-86
2023/11/19 03:45:13;;;;;;;;;;;;;;;;;;4975883;28;20224;-86
2023/11/19 03:47:38;;;;;;;;;;;;;;;;;;4983804;28;19993;-86
2023/11/19 03:50:04;;;;;;;;;;;;;;;;;;4996849;28;19917;-86
2023/11/19 03:52:29;;;;;;;;;;;;;;;;;;4998185;28;21910;-88
2023/11/19 03:54:58;;;;;;;;;;;;;;;;;;4974851;28;20396;-87
2023/11/19 03:57:23;;;;;;;;;;;;;;;;;;4983591;28;19992;-86
2023/11/19 03:59:48;;;;;;;;;;;;;;;;;;4979959;28;19972;-84
2023/11/19 04:02:13;;;;;;;;;;;;;;;;;;4985484;28;19993;-86
2023/11/19 04:04:39;;;;;;;;;;;;;;;;;;4976089;28;20292;-87
2023/11/19 04:07:09;;;;;;;;;;;;;;;;;;5011576;28;19913;-86
2023/11/19 04:09:37;;;;;;;;;;;;;;;;;;4985385;28;20280;-86
2023/11/19 04:12:02;;;;;;;;;;;;;;;;;;4982957;28;20351;-86
2023/11/19 04:14:28;;;;;;;;;;;;;;;;;;5002804;28;19910;-87
2023/11/19 04:16:54;;;;;;;;;;;;;;;;;;5003723;28;19973;-86
2023/11/19 04:19:19;;;;;;;;;;;;;;;;;;4983540;28;19961;-87
2023/11/19 04:21:45;;;;;;;;;;;;;;;;;;5002210;28;19914;-88
2023/11/19 04:24:14;;;;;;;;;;;;;;;;;;4985197;28;19910;-87
2023/11/19 04:26:39;;;;;;;;;;;;;;;;;;4984607;28;19913;-85
2023/11/19 04:29:08;;;;;;;;;;;;;;;;;;4975684;28;19929;-87
2023/11/19 04:31:34;;;;;;;;;;;;;;;;;;4978054;28;19957;-89
2023/11/19 04:34:00;;;;;;;;;;;;;;;;;;4980489;28;20239;-88
2023/11/19 04:36:25;;;;;;;;;;;;;;;;;;4983295;28;19922;-89
2023/11/19 04:38:51;;;;;;;;;;;;;;;;;;5016294;28;19940;-88
2023/11/19 04:41:16;;;;;;;;;;;;;;;;;;4996850;28;19922;-86
2023/11/19 04:43:41;;;;;;;;;;;;;;;;;;4993814;28;19992;-87
2023/11/19 04:46:07;;;;;;;;;;;;;;;;;;4983444;28;19933;-85
2023/11/19 04:48:32;;;;;;;;;;;;;;;;;;4983295;28;19917;-88
2023/11/19 04:50:57;;;;;;;;;;;;;;;;;;4981986;28;19918;-85
2023/11/19 04:53:23;;;;;;;;;;;;;;;;;;5000628;28;20705;-86
2023/11/19 04:55:48;;;;;;;;;;;;;;;;;;4978718;28;19914;-87
2023/11/19 04:58:14;;;;;;;;;;;;;;;;;;4984605;28;19928;-87
2023/11/19 05:00:39;;;;;;;;;;;;;;;;;;4980749;28;19945;-86
2023/11/19 05:03:04;;;;;;;;;;;;;;;;;;4984020;28;19917;-86
2023/11/19 05:05:29;;;;;;;;;;;;;;;;;;4999045;28;19914;-87
2023/11/19 05:08:01;;;;;;;;;;;;;;;;;;4983842;28;19913;-84
2023/11/19 05:10:26;;;;;;;;;;;;;;;;;;5001851;28;20375;-85
2023/11/19 05:12:52;;;;;;;;;;;;;;;;;;4999401;28;20678;-87
2023/11/19 05:15:18;;;;;;;;;;;;;;;;;;5000442;28;19953;-85
2023/11/19 05:17:43;;;;;;;;;;;;;;;;;;4980094;28;19922;-87
2023/11/19 05:20:13;;;;;;;;;;;;;;;;;;5002807;28;19925;-87
2023/11/19 05:22:38;;;;;;;;;;;;;;;;;;4985422;28;19914;-86
2023/11/19 05:25:05;;;;;;;;;;;;;;;;;;4994118;28;19959;-86
2023/11/19 05:27:31;;;;;;;;;;;;;;;;;;4995902;28;19948;-85
2023/11/19 05:29:56;;;;;;;;;;;;;;;;;;4981800;28;19918;-86
2023/11/19 05:32:21;;;;;;;;;;;;;;;;;;4985733;28;20232;-88
2023/11/19 05:47:24;;;;;;;;;;;;;;;;;;5003091;28;19960;-86
2023/11/19 05:49:49;;;;;;;;;;;;;;;;;;4967227;28;20318;-87
2023/11/19 05:52:24;;;;;;;;;;;;;;;;;;4972037;28;19921;-85
2023/11/19 05:54:51;;;;;;;;;;;;;;;;;;4985424;28;20000;-85
2023/11/19 05:57:23;;;;;;;;;;;;;;;;;;5003028;28;19921;-85
2023/11/19 05:59:53;;;;;;;;;;;;;;;;;;4975399;28;19914;-85
2023/11/19 06:02:24;;;;;;;;;;;;;;;;;;4973948;28;20278;-85
2023/11/19 06:04:51;;;;;;;;;;;;;;;;;;4971208;28;19913;-86
2023/11/19 06:07:17;;;;;;;;;;;;;;;;;;4971853;28;19988;-84
2023/11/19 06:09:42;;;;;;;;;;;;;;;;;;4966149;28;20339;-88
2023/11/19 06:12:07;;;;;;;;;;;;;;;;;;4998886;28;19935;-86
2023/11/19 06:14:42;;;;;;;;;;;;;;;;;;4980257;28;19924;-87
2023/11/19 06:17:11;;;;;;;;;;;;;;;;;;4969940;28;19925;-87
2023/11/19 06:19:36;;;;;;;;;;;;;;;;;;4967743;28;19925;-85
2023/11/19 06:22:04;;;;;;;;;;;;;;;;;;4967939;28;19913;-88
2023/11/19 06:24:29;;;;;;;;;;;;;;;;;;4962761;28;19944;-88
2023/11/19 06:26:55;;;;;;;;;;;;;;;;;;4984781;28;19914;-87
2023/11/19 06:29:20;;;;;;;;;;;;;;;;;;4971989;28;19914;-86
2023/11/19 06:31:48;;;;;;;;;;;;;;;;;;4994721;28;19973;-87
2023/11/19 06:34:13;;;;;;;;;;;;;;;;;;4992112;28;19953;-89
2023/11/19 06:36:39;;;;;;;;;;;;;;;;;;4963054;28;19917;-88
2023/11/19 06:39:05;;;;;;;;;;;;;;;;;;4965310;28;19918;-88
2023/11/19 06:41:33;;;;;;;;;;;;;;;;;;4963285;28;19919;-88
2023/11/19 06:43:59;;;;;;;;;;;;;;;;;;4977791;28;19929;-90
2023/11/19 06:46:36;;;;;;;;;;;;;;;;;;4964034;28;19922;-87
2023/11/19 06:49:10;;;;;;;;;;;;;;;;;;4943244;28;20008;-89
2023/11/19 06:51:36;;;;;;;;;;;;;;;;;;4970428;28;19918;-88
2023/11/19 06:54:03;;;;;;;;;;;;;;;;;;4942810;28;20255;-87
2023/11/19 06:59:19;;;;;;;;;;;;;;;;;;4956004;28;19984;-88
2023/11/19 07:01:48;;;;;;;;;;;;;;;;;;4957835;28;20336;-91
2023/11/19 07:04:13;;;;;;;;;;;;;;;;;;4938243;28;19914;-89
2023/11/19 07:09:28;;;;;;;;;;;;;;;;;;4964962;28;20092;-90
2023/11/19 07:11:54;;;;;;;;;;;;;;;;;;4942148;28;20340;-89
2023/11/19 07:20:21;;;;;;;;;;;;;;;;;;4931450;29;19942;-91
2023/11/19 07:22:46;;;;;;;;;;;;;;;;;;4904856;29;21062;-88
2023/11/19 07:28:28;;;;;;;;;;;;;;;;;;4932698;29;20309;-88
2023/11/19 07:31:11;;;;;;;;;;;;;;;;;;4902311;29;19919;-88
2023/11/19 07:33:39;;;;;;;;;;;;;;;;;;4919435;29;20340;-89
2023/11/19 07:36:05;;;;;;;;;;;;;;;;;;4917084;29;19942;-88
2023/11/19 07:38:30;;;;;;;;;;;;;;;;;;4906266;29;19922;-88
2023/11/19 07:40:59;;;;;;;;;;;;;;;;;;4918023;29;20250;-88
2023/11/19 07:43:27;;;;;;;;;;;;;;;;;;4907089;29;19965;-89
2023/11/19 07:45:52;;;;;;;;;;;;;;;;;;4917151;28;20489;-89
2023/11/19 07:48:23;;;;;;;;;;;;;;;;;;4943102;28;20515;-91
2023/11/19 07:50:50;;;;;;;;;;;;;;;;;;4952232;28;20017;-87
2023/11/19 07:59:55;;;;;;;;;;;;;;;;;;4992605;28;20008;-87
2023/11/19 08:02:21;;;;;;;;;;;;;;;;;;4985298;28;19954;-88
2023/11/19 08:04:50;;;;;;;;;;;;;;;;;;4976008;28;19965;-88
2023/11/19 08:07:17;;;;;;;;;;;;;;;;;;4980393;28;19913;-87
2023/11/19 08:09:43;;;;;;;;;;;;;;;;;;4983072;28;19940;-88
2023/11/19 08:12:08;;;;;;;;;;;;;;;;;;4981596;28;20257;-87
2023/11/19 08:14:34;;;;;;;;;;;;;;;;;;4998019;28;19929;-88
2023/11/19 08:17:03;;;;;;;;;;;;;;;;;;4983005;28;19944;-86
2023/11/19 08:19:36;;;;;;;;;;;;;;;;;;4998637;28;19968;-86
2023/11/19 08:22:02;;;;;;;;;;;;;;;;;;4996498;28;19976;-89
2023/11/19 08:24:49;;;;;;;;;;;;;;;;;;4994278;28;19937;-90
2023/11/19 08:27:14;;;;;;;;;;;;;;;;;;4973954;28;20001;-88
2023/11/19 08:29:40;;;;;;;;;;;;;;;;;;4976240;28;20096;-88
2023/11/19 08:32:12;;;;;;;;;;;;;;;;;;4974556;28;19925;-87
2023/11/19 08:34:37;;;;;;;;;;;;;;;;;;4992519;28;19960;-87
2023/11/19 08:37:06;;;;;;;;;;;;;;;;;;4989633;28;19913;-86
2023/11/19 08:39:32;;;;;;;;;;;;;;;;;;4992862;28;19914;-89
2023/11/19 08:41:57;;;;;;;;;;;;;;;;;;4974132;28;19999;-87
2023/11/19 08:44:23;;;;;;;;;;;;;;;;;;4990075;28;19918;-87
2023/11/19 08:46:48;;;;;;;;;;;;;;;;;;4974379;28;19926;-86
2023/11/19 08:49:17;;;;;;;;;;;;;;;;;;4990845;28;19926;-87
2023/11/19 08:51:42;;;;;;;;;;;;;;;;;;4979571;28;19925;-86
2023/11/19 08:54:10;;;;;;;;;;;;;;;;;;4978885;28;20004;-88
2023/11/19 08:56:39;;;;;;;;;;;;;;;;;;4972503;28;20065;-86
2023/11/19 08:59:04;;;;;;;;;;;;;;;;;;4993453;28;19925;-87
2023/11/19 09:01:29;;;;;;;;;;;;;;;;;;4978776;28;19914;-89
2023/11/19 09:03:59;;;;;;;;;;;;;;;;;;4992944;28;19918;-87
2023/11/19 09:06:24;;;;;;;;;;;;;;;;;;4988956;28;19976;-87
2023/11/19 09:08:53;;;;;;;;;;;;;;;;;;4979510;28;20017;-89
2023/11/19 09:11:18;;;;;;;;;;;;;;;;;;4973909;28;20020;-86
2023/11/19 09:13:45;;;;;;;;;;;;;;;;;;4975833;28;19972;-91
2023/11/19 09:16:10;;;;;;;;;;;;;;;;;;4975089;28;19922;-89
2023/11/19 09:18:35;;;;;;;;;;;;;;;;;;4992678;28;20799;-89
2023/11/19 09:21:02;;;;;;;;;;;;;;;;;;4970781;28;19914;-89
2023/11/19 09:23:35;;;;;;;;;;;;;;;;;;4974203;28;20040;-89
2023/11/19 09:31:55;;;;;;;;;;;;;;;;;;4991961;28;19968;-88
2023/11/19 09:34:26;;;;;;;;;;;;;;;;;;4994746;28;20371;-88
2023/11/19 09:36:51;;;;;;;;;;;;;;;;;;4983674;28;20250;-87
2023/11/19 09:39:17;;;;;;;;;;;;;;;;;;4980037;28;19996;-91
2023/11/19 09:41:44;;;;;;;;;;;;;;;;;;4979978;28;19914;-90
2023/11/19 09:44:28;;;;;;;;;;;;;;;;;;4995282;28;19960;-91
2023/11/19 09:46:55;;;;;;;;;;;;;;;;;;4978633;28;19981;-88
2023/11/19 09:49:23;;;;;;;;;;;;;;;;;;4976763;28;19918;-89
2023/11/19 09:51:54;;;;;;;;;;;;;;;;;;4996829;28;19946;-92
2023/11/19 09:54:22;;;;;;;;;;;;;;;;;;4965777;28;20013;-89
2023/11/19 09:56:50;;;;;;;;;;;;;;;;;;4968212;28;19913;-89
2023/11/19 09:59:33;;;;;;;;;;;;;;;;;;4995313;28;20033;-89
2023/11/19 10:01:58;;;;;;;;;;;;;;;;;;4964298;28;19957;-89
2023/11/19 10:04:26;;;;;;;;;;;;;;;;;;4966576;28;19971;-89
2023/11/19 10:06:54;;;;;;;;;;;;;;;;;;4997922;28;19914;-90
2023/11/19 10:09:49;;;;;;;;;;;;;;;;;;4992318;28;19969;-89
2023/11/19 10:12:56;;;;;;;;;;;;;;;;;;4994157;28;19976;-88
2023/11/19 10:15:24;;;;;;;;;;;;;;;;;;4963833;28;19921;-88
2023/11/19 10:17:53;;;;;;;;;;;;;;;;;;4979546;28;20750;-91
2023/11/19 10:20:25;;;;;;;;;;;;;;;;;;4974706;28;19940;-89
2023/11/19 10:22:57;;;;;;;;;;;;;;;;;;4977285;28;19925;-87
2023/11/19 10:25:41;;;;;;;;;;;;;;;;;;4978845;28;19917;-90
2023/11/19 10:28:07;;;;;;;;;;;;;;;;;;4963367;28;20008;-88
2023/11/19 10:30:33;;;;;;;;;;;;;;;;;;4981062;28;20362;-89
2023/11/19 10:32:59;;;;;;;;;;;;;;;;;;4962447;28;19953;-87
2023/11/19 10:35:27;;;;;;;;;;;;;;;;;;4967514;28;19924;-88
2023/11/19 10:37:53;;;;;;;;;;;;;;;;;;4980779;28;19914;-89
2023/11/19 10:40:18;;;;;;;;;;;;;;;;;;4992669;28;19930;-88
2023/11/19 10:42:44;;;;;;;;;;;;;;;;;;4963659;28;20009;-89
2023/11/19 10:45:12;;;;;;;;;;;;;;;;;;4982846;28;19941;-88
2023/11/19 10:47:37;;;;;;;;;;;;;;;;;;4971333;28;19976;-87
2023/11/19 10:50:03;;;;;;;;;;;;;;;;;;5008855;28;19925;-87
2023/11/19 10:52:28;;;;;;;;;;;;;;;;;;4975077;28;20028;-87
2023/11/19 10:54:54;;;;;;;;;;;;;;;;;;4977666;28;19958;-89
2023/11/19 10:57:19;;;;;;;;;;;;;;;;;;4977394;28;19913;-87
2023/11/19 10:59:44;;;;;;;;;;;;;;;;;;4975914;28;20012;-87
2023/11/19 11:02:10;;;;;;;;;;;;;;;;;;4975683;28;19925;-85
2023/11/19 11:04:35;;;;;;;;;;;;;;;;;;4977660;28;19978;-89
2023/11/19 11:07:01;;;;;;;;;;;;;;;;;;4977353;28;19983;-87
2023/11/19 11:09:26;;;;;;;;;;;;;;;;;;4976945;28;20008;-85
2023/11/19 11:11:52;;;;;;;;;;;;;;;;;;4978654;28;19913;-88
2023/11/19 11:14:17;;;;;;;;;;;;;;;;;;4980229;28;19910;-88
2023/11/19 11:16:45;;;;;;;;;;;;;;;;;;4975896;28;20021;-90
2023/11/19 11:19:11;;;;;;;;;;;;;;;;;;4993849;28;20314;-88
2023/11/19 11:21:39;;;;;;;;;;;;;;;;;;4990873;28;20243;-87
2023/11/19 11:24:05;;;;;;;;;;;;;;;;;;4997686;28;19968;-87
2023/11/19 11:26:30;;;;;;;;;;;;;;;;;;4982216;28;19921;-88
2023/11/19 11:29:00;;;;;;;;;;;;;;;;;;4981075;28;19910;-87
2023/11/19 11:31:30;;;;;;;;;;;;;;;;;;4980443;28;19917;-89
2023/11/19 11:37:30;;;;;;;;;;;;;;;;;;;;;
2023/11/19 11:40:23;;;;;;;;;;;;;;;;;;4971333;28;20367;-89
2023/11/19 11:42:50;;;;;;;;;;;;;;;;;;4978890;28;19922;-85
2023/11/19 11:45:16;;;;;;;;;;;;;;;;;;4990801;28;19913;-88
2023/11/19 11:47:49;;;;;;;;;;;;;;;;;;4976609;28;19976;-88
2023/11/19 11:50:25;;;;;;;;;;;;;;;;;;4990436;28;20016;-88
2023/11/19 11:52:59;;;;;;;;;;;;;;;;;;4974962;28;20005;-88
2023/11/19 11:55:27;;;;;;;;;;;;;;;;;;4992912;28;20527;-89
2023/11/19 11:57:53;;;;;;;;;;;;;;;;;;4972937;28;20013;-86
2023/11/19 12:00:39;;;;;;;;;;;;;;;;;;5010375;28;19917;-88
2023/11/19 12:03:04;;;;;;;;;;;;;;;;;;4989439;28;19972;-88
2023/11/19 12:05:30;;;;;;;;;;;;;;;;;;4979388;28;19933;-87
2023/11/19 12:07:57;;;;;;;;;;;;;;;;;;4979369;28;19925;-87
2023/11/19 12:13:15;;;;;;;;;;;;;;;;;;4991611;28;19913;-87
2023/11/19 12:15:44;;;;;;;;;;;;;;;;;;4971272;28;19964;-90
2023/11/19 12:18:12;;;;;;;;;;;;;;;;;;4977226;28;19913;-88
2023/11/19 12:20:41;;;;;;;;;;;;;;;;;;5009121;28;19929;-89
2023/11/19 12:23:18;;;;;;;;;;;;;;;;;;4977097;28;19913;-85
2023/11/19 12:26:12;;;;;;;;;;;;;;;;;;4952860;28;19982;-87
2023/11/19 12:29:06;;;;;;;;;;;;;;;;;;4913757;29;19923;-87
2023/11/19 12:34:31;;;;;;;;;;;;;;;;;;4934002;29;19963;-88
2023/11/19 12:37:20;;;;;;;;;;;;;;;;;;4940822;29;19918;-86
2023/11/19 12:39:48;;;;;;;;;;;;;;;;;;4945314;29;19974;-87
2023/11/19 12:42:38;;;;;;;;;;;;;;;;;;4885594;29;19932;-85
2023/11/19 12:45:08;;;;;;;;;;;;;;;;;;4898511;29;20006;-88
2023/11/19 12:47:36;;;;;;;;;;;;;;;;;;4910318;29;19931;-88
2023/11/19 12:50:22;;;;;;;;;;;;;;;;;;4904441;29;20242;-86
2023/11/19 12:52:51;;;;;;;;;;;;;;;;;;4911071;29;19946;-87
2023/11/19 12:55:16;;;;;;;;;;;;;;;;;;4896326;29;20353;-87
2023/11/19 13:21:23;;;;;;;;;;;;;;;;;;4764141;29;20006;-87
2023/11/19 13:24:01;;;;;;;;;;;;;;;;;;4846306;29;20014;-87
2023/11/19 13:26:26;;;;;;;;;;;;;;;;;;4887796;29;19989;-88
2023/11/19 13:29:12;;;;;;;;;;;;;;;;;;4903290;29;19915;-90
2023/11/19 13:31:38;;;;;;;;;;;;;;;;;;4915417;29;19915;-90
2023/11/19 13:34:12;;;;;;;;;;;;;;;;;;4901588;29;20294;-90
2023/11/19 13:36:38;;;;;;;;;;;;;;;;;;4900248;29;19926;-89
2023/11/19 13:41:59;;;;;;;;;;;;;;;;;;4966672;28;19980;-87
2023/11/19 13:47:41;;;;;;;;;;;;;;;;;;;;;
2023/11/19 13:56:52;;;;;;;;;;;;;;;;;;4884741;29;19922;-86
2023/11/19 14:06:18;;;;;;;;;;;;;;;;;;;;;
2023/11/19 14:25:25;;;;;;;;;;;;;;;;;;4621198;30;20435;-86
2023/11/19 14:31:09;;;;;;;;;;;;;;;;;;4628243;30;20003;-86
2023/11/19 14:46:24;;;;;;;;;;;;;;;;;;4910646;29;20302;-75
2023/11/19 14:48:52;;;;;;;;;;;;;;;;;;4891617;29;19919;-76
2023/11/19 14:51:18;;;;;;;;;;;;;;;;;;4895861;29;19949;-77
2023/11/19 14:53:43;;;;;;;;;;;;;;;;;;4892848;29;19930;-76
2023/11/19 14:56:09;;;;;;;;;;;;;;;;;;4879669;29;20490;-79
2023/11/19 14:58:34;;;;;;;;;;;;;;;;;;4913686;29;19923;-76
2023/11/19 15:00:59;;;;;;;;;;;;;;;;;;4895136;29;19918;-75
2023/11/19 15:03:25;;;;;;;;;;;;;;;;;;4909439;29;19987;-81
2023/11/19 15:05:50;;;;;;;;;;;;;;;;;;4912073;29;19922;-74
2023/11/19 15:08:16;;;;;;;;;;;;;;;;;;4913407;29;19927;-76
2023/11/19 15:10:41;;;;;;;;;;;;;;;;;;4896295;29;19927;-76
2023/11/19 15:13:06;;;;;;;;;;;;;;;;;;4891701;29;19919;-77
2023/11/19 15:15:32;;;;;;;;;;;;;;;;;;4895982;29;19923;-76
2023/11/19 15:17:59;;;;;;;;;;;;;;;;;;4893979;29;20475;-76
2023/11/19 15:20:25;;;;;;;;;;;;;;;;;;4912039;29;19918;-75
2023/11/19 15:22:51;;;;;;;;;;;;;;;;;;4889403;29;20136;-77
2023/11/19 15:25:16;;;;;;;;;;;;;;;;;;4908331;29;20005;-75
2023/11/19 15:27:45;;;;;;;;;;;;;;;;;;4881897;29;20037;-80
2023/11/19 15:30:15;;;;;;;;;;;;;;;;;;4880151;29;20469;-76
2023/11/19 15:32:42;;;;;;;;;;;;;;;;;;4912287;29;19949;-76
2023/11/19 15:35:07;;;;;;;;;;;;;;;;;;4894583;29;19923;-76
2023/11/19 15:37:33;;;;;;;;;;;;;;;;;;4889805;29;20746;-76
2023/11/19 15:39:58;;;;;;;;;;;;;;;;;;4903405;29;19926;-75
2023/11/19 15:42:23;;;;;;;;;;;;;;;;;;4896853;29;20433;-77
2023/11/19 15:44:49;;;;;;;;;;;;;;;;;;4910368;29;19949;-76
2023/11/19 15:47:15;;;;;;;;;;;;;;;;;;4894971;29;19918;-77
2023/11/19 15:49:40;;;;;;;;;;;;;;;;;;4893664;29;21901;-74
2023/11/19 15:52:09;;;;;;;;;;;;;;;;;;4896144;29;19922;-79
2023/11/19 15:54:34;;;;;;;;;;;;;;;;;;4911461;29;19923;-77
2023/11/19 15:57:01;;;;;;;;;;;;;;;;;;4895219;29;19919;-77
2023/11/19 15:59:26;;;;;;;;;;;;;;;;;;4893546;29;20172;-77
2023/11/19 16:01:51;;;;;;;;;;;;;;;;;;4913577;29;19923;-78
2023/11/19 16:04:16;;;;;;;;;;;;;;;;;;4906910;29;19919;-74
2023/11/19 16:06:43;;;;;;;;;;;;;;;;;;4895622;29;19934;-77
2023/11/19 16:09:11;;;;;;;;;;;;;;;;;;4893274;29;19974;-75
2023/11/19 16:11:43;;;;;;;;;;;;;;;;;;4895205;29;19927;-77
2023/11/19 16:14:08;;;;;;;;;;;;;;;;;;4877979;29;19919;-79
2023/11/19 16:16:37;;;;;;;;;;;;;;;;;;4911182;29;19918;-80
2023/11/19 16:19:04;;;;;;;;;;;;;;;;;;4892621;29;20083;-79
2023/11/19 16:21:29;;;;;;;;;;;;;;;;;;4878264;29;19914;-77
2023/11/19 16:23:54;;;;;;;;;;;;;;;;;;4894123;29;20823;-78
2023/11/19 16:26:20;;;;;;;;;;;;;;;;;;4904732;29;19923;-76
2023/11/19 16:28:45;;;;;;;;;;;;;;;;;;4893212;29;19926;-77
2023/11/19 16:31:10;;;;;;;;;;;;;;;;;;4877197;29;19973;-78
2023/11/19 16:33:38;;;;;;;;;;;;;;;;;;4910220;29;19986;-79
2023/11/19 16:36:04;;;;;;;;;;;;;;;;;;4906617;29;19923;-76
2023/11/19 16:38:29;;;;;;;;;;;;;;;;;;4908234;29;19923;-78
2023/11/19 16:40:55;;;;;;;;;;;;;;;;;;4879333;29;20347;-77
2023/11/19 16:43:23;;;;;;;;;;;;;;;;;;4893238;29;19922;-78
2023/11/19 16:45:50;;;;;;;;;;;;;;;;;;4911120;29;19942;-77
2023/11/19 16:48:21;;;;;;;;;;;;;;;;;;4918353;29;20418;-78
2023/11/19 16:50:49;;;;;;;;;;;;;;;;;;4901034;29;19927;-78
2023/11/19 16:53:14;;;;;;;;;;;;;;;;;;4912035;29;20441;-74
2023/11/19 16:55:39;;;;;;;;;;;;;;;;;;4895318;29;19978;-76
2023/11/19 16:58:05;;;;;;;;;;;;;;;;;;4896467;29;19988;-75
2023/11/19 17:00:30;;;;;;;;;;;;;;;;;;4897299;29;20404;-75
2023/11/19 17:02:58;;;;;;;;;;;;;;;;;;4905520;29;19944;-75
2023/11/19 17:05:24;;;;;;;;;;;;;;;;;;4917448;29;19922;-74
2023/11/19 17:07:51;;;;;;;;;;;;;;;;;;4897196;29;20519;-75
2023/11/19 17:10:18;;;;;;;;;;;;;;;;;;4898529;29;19918;-73
2023/11/19 17:12:43;;;;;;;;;;;;;;;;;;4894245;29;20117;-74
2023/11/19 17:15:11;;;;;;;;;;;;;;;;;;4890732;29;19922;-76
2023/11/19 17:17:36;;;;;;;;;;;;;;;;;;4911242;29;20393;-76
2023/11/19 17:20:03;;;;;;;;;;;;;;;;;;4895054;29;19926;-77
2023/11/19 17:22:33;;;;;;;;;;;;;;;;;;4890175;29;19925;-77
2023/11/19 17:24:59;;;;;;;;;;;;;;;;;;4896364;29;20400;-73
2023/11/19 17:27:27;;;;;;;;;;;;;;;;;;4909063;29;20445;-75
2023/11/19 17:29:52;;;;;;;;;;;;;;;;;;4894480;29;19942;-78
2023/11/19 17:32:18;;;;;;;;;;;;;;;;;;4880505;29;19919;-77
2023/11/19 17:34:43;;;;;;;;;;;;;;;;;;4919894;28;19981;-77
2023/11/19 17:37:08;;;;;;;;;;;;;;;;;;4882140;29;19930;-75
2023/11/19 17:39:34;;;;;;;;;;;;;;;;;;4892955;29;20002;-75
2023/11/19 17:41:59;;;;;;;;;;;;;;;;;;4885817;29;19922;-73
2023/11/19 17:44:26;;;;;;;;;;;;;;;;;;4894555;29;20416;-67
2023/11/19 17:46:54;;;;;;;;;;;;;;;;;;4894378;29;19919;-68
2023/11/19 17:49:20;;;;;;;;;;;;;;;;;;4913530;29;19965;-71
2023/11/19 17:51:45;;;;;;;;;;;;;;;;;;4913309;29;19925;-70
2023/11/19 17:54:10;;;;;;;;;;;;;;;;;;4897846;29;19930;-68
2023/11/19 17:56:39;;;;;;;;;;;;;;;;;;4889552;29;20155;-69
2023/11/19 17:59:04;;;;;;;;;;;;;;;;;;4914238;29;20021;-68
2023/11/19 18:01:30;;;;;;;;;;;;;;;;;;4895691;29;19922;-69
2023/11/19 18:03:55;;;;;;;;;;;;;;;;;;4895212;29;20057;-68
2023/11/19 18:06:20;;;;;;;;;;;;;;;;;;4907989;29;19988;-69
2023/11/19 18:08:46;;;;;;;;;;;;;;;;;;4911927;29;19945;-68
2023/11/19 18:11:11;;;;;;;;;;;;;;;;;;4894441;29;19989;-68
2023/11/19 18:13:39;;;;;;;;;;;;;;;;;;4898171;29;19922;-68
2023/11/19 18:16:05;;;;;;;;;;;;;;;;;;4909199;29;19923;-67
2023/11/19 18:18:30;;;;;;;;;;;;;;;;;;4898055;29;19969;-67
2023/11/19 18:20:55;;;;;;;;;;;;;;;;;;4896596;29;19941;-66
2023/11/19 18:23:25;;;;;;;;;;;;;;;;;;4884416;29;20334;-66
2023/11/19 18:25:52;;;;;;;;;;;;;;;;;;4893861;29;19929;-66
2023/11/19 18:28:22;;;;;;;;;;;;;;;;;;4886546;29;19923;-65
2023/11/19 18:30:49;;;;;;;;;;;;;;;;;;4899072;29;20325;-66
2023/11/19 18:33:14;;;;;;;;;;;;;;;;;;4922784;28;20287;-67
2023/11/19 18:35:43;;;;;;;;;;;;;;;;;;4913707;29;19919;-67
2023/11/19 18:38:08;;;;;;;;;;;;;;;;;;4913006;29;20394;-67
2023/11/19 18:40:33;;;;;;;;;;;;;;;;;;4915663;29;20499;-67
2023/11/19 18:42:59;;;;;;;;;;;;;;;;;;4907996;29;20404;-66
2023/11/19 18:45:25;;;;;;;;;;;;;;;;;;4899281;29;19946;-66
2023/11/19 18:47:53;;;;;;;;;;;;;;;;;;4895599;29;19919;-67
2023/11/19 18:50:23;;;;;;;;;;;;;;;;;;4914940;29;19923;-66
2023/11/19 18:52:51;;;;;;;;;;;;;;;;;;4894500;29;19935;-66
2023/11/19 18:55:17;;;;;;;;;;;;;;;;;;4913201;29;20755;-66
2023/11/19 18:57:42;;;;;;;;;;;;;;;;;;4883119;29;20144;-67
2023/11/19 19:00:10;;;;;;;;;;;;;;;;;;4906635;29;20342;-66
2023/11/19 19:02:35;;;;;;;;;;;;;;;;;;4896638;29;21204;-67